Hebei Shijiazhuang — VRIS2 — position and weather

sailwx.info

Track history (hours):
 
Tides and Currents Weather Stations Pressure Air Temp Water Temp Dewpoint Dewpoint Depression Visibility Wind Speed Wind Dir Waves Ship Positions

Hebei Shijiazhuang

Last reported at 2015-Apr-25 07:28 UTC. Time now 2015-Apr-28 00:37 UTC.
Position N 22°57' E 119°48'.

Length 235 m.

Type: Cargo ship. MMSI: 477899000.

Date/timePositionNaut miles runAvg speedWind from/ knotsBaromVisibWave heightAir tempDewpointWater temp
2015-Apr-25 07:28N 22°57' E 119°48'6 6.3
2015-Apr-25 06:33N 22°51' E 119°48'7 6.7
2015-Apr-25 05:33N 22°45' E 119°48'7 7.0
2015-Apr-25 04:33N 22°38' E 119°48'7 6.8
2015-Apr-25 03:33N 22°31' E 119°48'7 6.7
2015-Apr-25 02:29N 22°24' E 119°48'6 6.6
2015-Apr-25 01:33N 22°18' E 119°48'  
2015-Apr-18 16:22N 20°30' E 119°29'116 9.0
2015-Apr-18 03:33N 22°24' E 119°48'7 6.8
2015-Apr-18 02:33N 22°30' E 119°51'8 7.0
2015-Apr-18 01:22N 22°37' E 119°56'911.0
2015-Apr-18 00:33N 22°44' E 120°02'10 0.2
2015-Apr-16 07:28N 22°51' E 120°11'0 0.0
2015-Apr-16 06:28N 22°51' E 120°11'1 0.1
2015-Apr-16 00:15N 22°50' E 120°10'7 9.4
2015-Apr-15 23:33N 22°43' E 120°11'5 5.2
2015-Apr-15 22:33N 22°39' E 120°08'1110.6
2015-Apr-15 21:33N 22°33' E 119°58'8 8.2
2015-Apr-15 20:34N 22°26' E 119°56'9 9.3
2015-Apr-15 19:33N 22°16' E 119°56'  
Track history (hours):
 
Tides and Currents Weather Stations Pressure Air Temp Water Temp Dewpoint Dewpoint Depression Visibility Wind Speed Wind Dir Waves Ship Positions

Hebei Shijiazhuang

Last reported at 2015-Apr-25 07:28 UTC. Time now 2015-Apr-28 00:37 UTC.
Position N 22°57' E 119°48'.

Length 235 m.

Type: Cargo ship. MMSI: 477899000.

Date/timePositionNaut miles runAvg speedWind from/ knotsBaromVisibWave heightAir tempDewpointWater temp
2015-Apr-25 07:28N 22°57' E 119°48'6 6.3
2015-Apr-25 06:33N 22°51' E 119°48'7 6.7
2015-Apr-25 05:33N 22°45' E 119°48'7 7.0
2015-Apr-25 04:33N 22°38' E 119°48'7 6.8
2015-Apr-25 03:33N 22°31' E 119°48'7 6.7
2015-Apr-25 02:29N 22°24' E 119°48'6 6.6
2015-Apr-25 01:33N 22°18' E 119°48'  
2015-Apr-18 16:22N 20°30' E 119°29'116 9.0
2015-Apr-18 03:33N 22°24' E 119°48'7 6.8
2015-Apr-18 02:33N 22°30' E 119°51'8 7.0
2015-Apr-18 01:22N 22°37' E 119°56'911.0
2015-Apr-18 00:33N 22°44' E 120°02'10 0.2
2015-Apr-16 07:28N 22°51' E 120°11'0 0.0
2015-Apr-16 06:28N 22°51' E 120°11'1 0.1
2015-Apr-16 00:15N 22°50' E 120°10'7 9.4
2015-Apr-15 23:33N 22°43' E 120°11'5 5.2
2015-Apr-15 22:33N 22°39' E 120°08'1110.6
2015-Apr-15 21:33N 22°33' E 119°58'8 8.2
2015-Apr-15 20:34N 22°26' E 119°56'9 9.3
2015-Apr-15 19:33N 22°16' E 119°56'  

Dump ship's entire track history